sensor_id;sensor_type;location;lat;lon;timestamp;temperature;humidity
75899;DHT22;64576;50.460;4.866;2022-11-04T00:01:26;8.23;94.33
75899;DHT22;64576;50.460;4.866;2022-11-04T00:03:52;8.23;94.23
75899;DHT22;64576;50.460;4.866;2022-11-04T00:06:18;8.23;93.94
75899;DHT22;64576;50.460;4.866;2022-11-04T00:08:48;8.18;94.19
75899;DHT22;64576;50.460;4.866;2022-11-04T00:11:14;8.11;94.52
75899;DHT22;64576;50.460;4.866;2022-11-04T00:13:58;8.10;94.56
75899;DHT22;64576;50.460;4.866;2022-11-04T00:16:23;8.10;94.19
75899;DHT22;64576;50.460;4.866;2022-11-04T00:19:07;8.04;94.67
75899;DHT22;64576;50.460;4.866;2022-11-04T00:21:32;7.91;95.29
75899;DHT22;64576;50.460;4.866;2022-11-04T00:24:16;8.08;94.55
75899;DHT22;64576;50.460;4.866;2022-11-04T00:27:16;8.07;94.54
75899;DHT22;64576;50.460;4.866;2022-11-04T00:30:02;7.91;94.97
75899;DHT22;64576;50.460;4.866;2022-11-04T00:32:27;7.89;95.04
75899;DHT22;64576;50.460;4.866;2022-11-04T00:35:12;7.90;94.86
75899;DHT22;64576;50.460;4.866;2022-11-04T00:37:39;7.91;94.69
75899;DHT22;64576;50.460;4.866;2022-11-04T00:40:05;7.98;94.54
75899;DHT22;64576;50.460;4.866;2022-11-04T00:42:31;7.94;94.48
75899;DHT22;64576;50.460;4.866;2022-11-04T00:44:56;8.01;94.12
75899;DHT22;64576;50.460;4.866;2022-11-04T00:47:22;8.00;94.09
75899;DHT22;64576;50.460;4.866;2022-11-04T00:49:47;7.90;94.48
75899;DHT22;64576;50.460;4.866;2022-11-04T00:52:12;7.82;94.65
75899;DHT22;64576;50.460;4.866;2022-11-04T00:54:38;7.73;95.22
75899;DHT22;64576;50.460;4.866;2022-11-04T00:57:03;7.83;94.80
75899;DHT22;64576;50.460;4.866;2022-11-04T00:59:28;7.83;94.64
75899;DHT22;64576;50.460;4.866;2022-11-04T01:01:54;7.80;94.85
75899;DHT22;64576;50.460;4.866;2022-11-04T01:04:20;7.78;94.78
75899;DHT22;64576;50.460;4.866;2022-11-04T01:06:45;7.82;94.85
75899;DHT22;64576;50.460;4.866;2022-11-04T01:09:11;7.82;94.58
75899;DHT22;64576;50.460;4.866;2022-11-04T01:11:37;7.79;94.71
75899;DHT22;64576;50.460;4.866;2022-11-04T01:14:03;7.68;95.14
75899;DHT22;64576;50.460;4.866;2022-11-04T01:16:28;7.62;95.56
75899;DHT22;64576;50.460;4.866;2022-11-04T01:18:53;7.70;95.45
75899;DHT22;64576;50.460;4.866;2022-11-04T01:21:19;7.76;95.14
75899;DHT22;64576;50.460;4.866;2022-11-04T01:23:45;7.83;94.82
75899;DHT22;64576;50.460;4.866;2022-11-04T01:26:17;7.73;95.17
75899;DHT22;64576;50.460;4.866;2022-11-04T01:28:42;7.73;95.31
75899;DHT22;64576;50.460;4.866;2022-11-04T01:31:10;7.73;95.41
75899;DHT22;64576;50.460;4.866;2022-11-04T01:33:37;7.63;95.55
75899;DHT22;64576;50.460;4.866;2022-11-04T01:36:03;7.65;95.46
75899;DHT22;64576;50.460;4.866;2022-11-04T01:38:29;7.59;95.92
75899;DHT22;64576;50.460;4.866;2022-11-04T01:40:55;7.61;95.70
75899;DHT22;64576;50.460;4.866;2022-11-04T01:43:21;7.59;95.80
75899;DHT22;64576;50.460;4.866;2022-11-04T01:45:51;7.61;95.86
75899;DHT22;64576;50.460;4.866;2022-11-04T01:48:25;7.66;95.69
75899;DHT22;64576;50.460;4.866;2022-11-04T01:50:53;7.69;95.74
75899;DHT22;64576;50.460;4.866;2022-11-04T01:53:25;7.73;95.44
75899;DHT22;64576;50.460;4.866;2022-11-04T01:55:55;7.80;95.15
75899;DHT22;64576;50.460;4.866;2022-11-04T01:58:25;7.87;95.10
75899;DHT22;64576;50.460;4.866;2022-11-04T02:00:51;7.97;94.40
75899;DHT22;64576;50.460;4.866;2022-11-04T02:03:25;7.96;94.62
75899;DHT22;64576;50.460;4.866;2022-11-04T02:05:52;8.01;94.67
75899;DHT22;64576;50.460;4.866;2022-11-04T02:08:19;8.07;94.27
75899;DHT22;64576;50.460;4.866;2022-11-04T02:10:49;8.07;94.39
75899;DHT22;64576;50.460;4.866;2022-11-04T02:13:16;8.06;94.36
75899;DHT22;64576;50.460;4.866;2022-11-04T02:15:54;8.13;94.02
75899;DHT22;64576;50.460;4.866;2022-11-04T02:18:35;8.16;94.08
75899;DHT22;64576;50.460;4.866;2022-11-04T02:24:13;8.20;93.84
75899;DHT22;64576;50.460;4.866;2022-11-04T02:29:28;8.13;94.17
75899;DHT22;64576;50.460;4.866;2022-11-04T02:32:26;8.08;94.31
75899;DHT22;64576;50.460;4.866;2022-11-04T02:38:11;7.97;94.63
75899;DHT22;64576;50.460;4.866;2022-11-04T02:40:59;8.03;94.75
75899;DHT22;64576;50.460;4.866;2022-11-04T02:43:48;7.98;94.93
75899;DHT22;64576;50.460;4.866;2022-11-04T02:46:36;7.94;94.97
75899;DHT22;64576;50.460;4.866;2022-11-04T02:49:11;7.94;94.92
75899;DHT22;64576;50.460;4.866;2022-11-04T02:51:47;7.94;95.19
75899;DHT22;64576;50.460;4.866;2022-11-04T02:54:22;7.83;95.58
75899;DHT22;64576;50.460;4.866;2022-11-04T02:56:50;7.87;95.37
75899;DHT22;64576;50.460;4.866;2022-11-04T02:59:32;7.86;95.37
75899;DHT22;64576;50.460;4.866;2022-11-04T03:02:00;7.76;95.58
75899;DHT22;64576;50.460;4.866;2022-11-04T03:04:31;7.73;95.72
75899;DHT22;64576;50.460;4.866;2022-11-04T03:06:59;7.75;95.54
75899;DHT22;64576;50.460;4.866;2022-11-04T03:09:27;7.85;95.55
75899;DHT22;64576;50.460;4.866;2022-11-04T03:11:59;7.94;95.19
75899;DHT22;64576;50.460;4.866;2022-11-04T03:14:33;8.11;94.37
75899;DHT22;64576;50.460;4.866;2022-11-04T03:17:02;8.20;93.97
75899;DHT22;64576;50.460;4.866;2022-11-04T03:19:43;8.25;93.79
75899;DHT22;64576;50.460;4.866;2022-11-04T03:22:16;8.34;93.36
75899;DHT22;64576;50.460;4.866;2022-11-04T03:24:43;8.37;93.40
75899;DHT22;64576;50.460;4.866;2022-11-04T03:27:26;8.38;93.04
75899;DHT22;64576;50.460;4.866;2022-11-04T03:30:05;8.44;92.98
75899;DHT22;64576;50.460;4.866;2022-11-04T03:35:00;8.49;92.82
75899;DHT22;64576;50.460;4.866;2022-11-04T03:37:25;8.49;93.13
75899;DHT22;64576;50.460;4.866;2022-11-04T03:39:51;8.51;92.87
75899;DHT22;64576;50.460;4.866;2022-11-04T03:42:17;8.55;92.95
75899;DHT22;64576;50.460;4.866;2022-11-04T03:44:54;8.59;92.61
75899;DHT22;64576;50.460;4.866;2022-11-04T03:47:25;8.54;92.88
75899;DHT22;64576;50.460;4.866;2022-11-04T03:49:56;8.54;92.76
75899;DHT22;64576;50.460;4.866;2022-11-04T03:52:21;8.61;92.59
75899;DHT22;64576;50.460;4.866;2022-11-04T03:54:47;8.61;92.39
75899;DHT22;64576;50.460;4.866;2022-11-04T03:57:42;8.63;92.41
75899;DHT22;64576;50.460;4.866;2022-11-04T04:00:18;8.62;92.62
75899;DHT22;64576;50.460;4.866;2022-11-04T04:08:07;8.63;92.81
75899;DHT22;64576;50.460;4.866;2022-11-04T04:11:05;8.72;92.14
75899;DHT22;64576;50.460;4.866;2022-11-04T04:13:46;8.72;92.13
75899;DHT22;64576;50.460;4.866;2022-11-04T04:16:17;8.71;92.39
75899;DHT22;64576;50.460;4.866;2022-11-04T04:19:11;8.71;92.17
75899;DHT22;64576;50.460;4.866;2022-11-04T04:21:54;8.75;92.19
75899;DHT22;64576;50.460;4.866;2022-11-04T04:24:25;8.77;91.75
75899;DHT22;64576;50.460;4.866;2022-11-04T04:27:11;8.75;92.23
75899;DHT22;64576;50.460;4.866;2022-11-04T04:29:56;8.69;92.35
75899;DHT22;64576;50.460;4.866;2022-11-04T04:32:24;8.69;92.45
75899;DHT22;64576;50.460;4.866;2022-11-04T04:34:50;8.66;92.37
75899;DHT22;64576;50.460;4.866;2022-11-04T04:37:36;8.68;92.54
75899;DHT22;64576;50.460;4.866;2022-11-04T04:40:02;8.72;92.28
75899;DHT22;64576;50.460;4.866;2022-11-04T04:42:47;8.80;91.83
75899;DHT22;64576;50.460;4.866;2022-11-04T04:45:51;8.82;92.46
75899;DHT22;64576;50.460;4.866;2022-11-04T04:48:18;8.80;92.71
75899;DHT22;64576;50.460;4.866;2022-11-04T04:50:46;8.72;93.88
75899;DHT22;64576;50.460;4.866;2022-11-04T04:53:13;8.61;94.75
75899;DHT22;64576;50.460;4.866;2022-11-04T04:55:38;8.49;95.48
75899;DHT22;64576;50.460;4.866;2022-11-04T04:58:04;8.48;95.52
75899;DHT22;64576;50.460;4.866;2022-11-04T05:00:29;8.48;96.07
75899;DHT22;64576;50.460;4.866;2022-11-04T05:02:54;8.41;96.44
75899;DHT22;64576;50.460;4.866;2022-11-04T05:05:20;8.44;96.20
75899;DHT22;64576;50.460;4.866;2022-11-04T05:07:46;8.42;96.15
75899;DHT22;64576;50.460;4.866;2022-11-04T05:10:12;8.46;96.22
75899;DHT22;64576;50.460;4.866;2022-11-04T05:12:39;8.45;95.82
75899;DHT22;64576;50.460;4.866;2022-11-04T05:15:23;8.40;95.97
75899;DHT22;64576;50.460;4.866;2022-11-04T05:17:56;8.41;96.13
75899;DHT22;64576;50.460;4.866;2022-11-04T05:20:23;8.40;96.22
75899;DHT22;64576;50.460;4.866;2022-11-04T05:22:48;8.41;96.21
75899;DHT22;64576;50.460;4.866;2022-11-04T05:25:14;8.41;96.29
75899;DHT22;64576;50.460;4.866;2022-11-04T05:27:39;8.45;96.13
75899;DHT22;64576;50.460;4.866;2022-11-04T05:30:05;8.52;96.02
75899;DHT22;64576;50.460;4.866;2022-11-04T05:32:30;8.49;96.25
75899;DHT22;64576;50.460;4.866;2022-11-04T05:34:57;8.44;96.65
75899;DHT22;64576;50.460;4.866;2022-11-04T05:37:22;8.42;96.94
75899;DHT22;64576;50.460;4.866;2022-11-04T05:39:48;8.40;97.33
75899;DHT22;64576;50.460;4.866;2022-11-04T05:42:13;8.37;97.76
75899;DHT22;64576;50.460;4.866;2022-11-04T05:44:38;8.40;97.32
75899;DHT22;64576;50.460;4.866;2022-11-04T05:47:04;8.40;97.34
75899;DHT22;64576;50.460;4.866;2022-11-04T05:49:29;8.35;97.87
75899;DHT22;64576;50.460;4.866;2022-11-04T05:51:55;8.35;97.69
75899;DHT22;64576;50.460;4.866;2022-11-04T05:54:20;8.35;98.09
75899;DHT22;64576;50.460;4.866;2022-11-04T05:56:46;8.31;97.85
75899;DHT22;64576;50.460;4.866;2022-11-04T05:59:11;8.31;97.68
75899;DHT22;64576;50.460;4.866;2022-11-04T06:01:39;8.30;97.75
75899;DHT22;64576;50.460;4.866;2022-11-04T06:04:05;8.25;97.64
75899;DHT22;64576;50.460;4.866;2022-11-04T06:06:34;8.25;97.78
75899;DHT22;64576;50.460;4.866;2022-11-04T06:09:00;8.27;97.63
75899;DHT22;64576;50.460;4.866;2022-11-04T06:11:28;8.25;97.62
75899;DHT22;64576;50.460;4.866;2022-11-04T06:13:54;8.34;97.33
75899;DHT22;64576;50.460;4.866;2022-11-04T06:16:20;8.33;97.41
75899;DHT22;64576;50.460;4.866;2022-11-04T06:18:45;8.34;97.25
75899;DHT22;64576;50.460;4.866;2022-11-04T06:23:40;8.33;97.66
75899;DHT22;64576;50.460;4.866;2022-11-04T06:26:06;8.31;97.84
75899;DHT22;64576;50.460;4.866;2022-11-04T06:28:32;8.27;98.09
75899;DHT22;64576;50.460;4.866;2022-11-04T06:30:59;8.27;98.32
75899;DHT22;64576;50.460;4.866;2022-11-04T06:33:25;8.23;98.52
75899;DHT22;64576;50.460;4.866;2022-11-04T06:35:50;8.23;98.24
75899;DHT22;64576;50.460;4.866;2022-11-04T06:38:16;8.23;98.25
75899;DHT22;64576;50.460;4.866;2022-11-04T06:40:41;8.24;98.21
75899;DHT22;64576;50.460;4.866;2022-11-04T06:43:06;8.21;98.45
75899;DHT22;64576;50.460;4.866;2022-11-04T06:45:31;8.20;98.36
75899;DHT22;64576;50.460;4.866;2022-11-04T06:47:57;8.20;98.48
75899;DHT22;64576;50.460;4.866;2022-11-04T06:50:22;8.30;98.25
75899;DHT22;64576;50.460;4.866;2022-11-04T06:52:47;8.24;98.33
75899;DHT22;64576;50.460;4.866;2022-11-04T06:55:13;8.27;98.38
75899;DHT22;64576;50.460;4.866;2022-11-04T06:57:38;8.30;98.23
75899;DHT22;64576;50.460;4.866;2022-11-04T07:00:04;8.28;98.29
75899;DHT22;64576;50.460;4.866;2022-11-04T07:02:29;8.28;98.31
75899;DHT22;64576;50.460;4.866;2022-11-04T07:04:55;8.35;98.12
75899;DHT22;64576;50.460;4.866;2022-11-04T07:07:20;8.40;97.80
75899;DHT22;64576;50.460;4.866;2022-11-04T07:09:45;8.44;97.38
75899;DHT22;64576;50.460;4.866;2022-11-04T07:12:11;8.55;97.20
75899;DHT22;64576;50.460;4.866;2022-11-04T07:14:36;8.59;96.81
75899;DHT22;64576;50.460;4.866;2022-11-04T07:17:02;8.61;96.92
75899;DHT22;64576;50.460;4.866;2022-11-04T07:19:27;8.62;96.82
75899;DHT22;64576;50.460;4.866;2022-11-04T07:21:52;8.62;96.70
75899;DHT22;64576;50.460;4.866;2022-11-04T07:24:18;8.63;96.69
75899;DHT22;64576;50.460;4.866;2022-11-04T07:26:43;8.68;96.82
75899;DHT22;64576;50.460;4.866;2022-11-04T07:29:09;8.69;96.62
75899;DHT22;64576;50.460;4.866;2022-11-04T07:31:36;8.73;96.76
75899;DHT22;64576;50.460;4.866;2022-11-04T07:34:02;8.75;96.79
75899;DHT22;64576;50.460;4.866;2022-11-04T07:36:28;8.77;97.18
75899;DHT22;64576;50.460;4.866;2022-11-04T07:38:53;8.76;97.29
75899;DHT22;64576;50.460;4.866;2022-11-04T07:41:18;8.77;97.48
75899;DHT22;64576;50.460;4.866;2022-11-04T07:43:50;8.82;97.47
75899;DHT22;64576;50.460;4.866;2022-11-04T07:46:17;8.80;97.72
75899;DHT22;64576;50.460;4.866;2022-11-04T07:48:43;8.79;97.58
75899;DHT22;64576;50.460;4.866;2022-11-04T07:51:12;8.82;97.72
75899;DHT22;64576;50.460;4.866;2022-11-04T07:53:39;8.76;97.93
75899;DHT22;64576;50.460;4.866;2022-11-04T07:56:06;8.76;98.04
75899;DHT22;64576;50.460;4.866;2022-11-04T07:58:32;8.77;98.12
75899;DHT22;64576;50.460;4.866;2022-11-04T08:01:02;8.83;98.12
75899;DHT22;64576;50.460;4.866;2022-11-04T08:03:27;8.83;98.07
75899;DHT22;64576;50.460;4.866;2022-11-04T08:05:57;8.92;98.06
75899;DHT22;64576;50.460;4.866;2022-11-04T08:08:23;8.89;97.63
75899;DHT22;64576;50.460;4.866;2022-11-04T08:10:57;8.94;97.69
75899;DHT22;64576;50.460;4.866;2022-11-04T08:13:29;9.00;97.43
75899;DHT22;64576;50.460;4.866;2022-11-04T08:15:55;9.01;97.22
75899;DHT22;64576;50.460;4.866;2022-11-04T08:18:21;9.03;97.36
75899;DHT22;64576;50.460;4.866;2022-11-04T08:20:48;8.97;97.04
75899;DHT22;64576;50.460;4.866;2022-11-04T08:23:15;8.99;97.10
75899;DHT22;64576;50.460;4.866;2022-11-04T08:25:40;9.03;97.29
75899;DHT22;64576;50.460;4.866;2022-11-04T08:28:05;9.09;97.05
75899;DHT22;64576;50.460;4.866;2022-11-04T08:30:31;9.14;97.15
75899;DHT22;64576;50.460;4.866;2022-11-04T08:32:56;9.27;96.59
75899;DHT22;64576;50.460;4.866;2022-11-04T08:35:22;9.28;96.28
75899;DHT22;64576;50.460;4.866;2022-11-04T08:37:47;9.32;96.05
75899;DHT22;64576;50.460;4.866;2022-11-04T08:40:13;9.39;95.79
75899;DHT22;64576;50.460;4.866;2022-11-04T08:42:38;9.47;95.92
75899;DHT22;64576;50.460;4.866;2022-11-04T08:45:03;9.58;95.63
75899;DHT22;64576;50.460;4.866;2022-11-04T08:47:29;9.58;94.67
75899;DHT22;64576;50.460;4.866;2022-11-04T08:49:54;9.62;94.71
75899;DHT22;64576;50.460;4.866;2022-11-04T08:52:20;9.65;94.53
75899;DHT22;64576;50.460;4.866;2022-11-04T08:54:45;9.85;94.15
75899;DHT22;64576;50.460;4.866;2022-11-04T08:57:10;9.94;93.05
75899;DHT22;64576;50.460;4.866;2022-11-04T08:59:36;10.04;92.48
75899;DHT22;64576;50.460;4.866;2022-11-04T09:02:01;10.14;91.85
75899;DHT22;64576;50.460;4.866;2022-11-04T09:04:27;10.21;92.14
75899;DHT22;64576;50.460;4.866;2022-11-04T09:06:52;10.38;91.78
75899;DHT22;64576;50.460;4.866;2022-11-04T09:09:20;10.45;90.91
75899;DHT22;64576;50.460;4.866;2022-11-04T09:11:46;10.58;89.99
75899;DHT22;64576;50.460;4.866;2022-11-04T09:14:12;10.59;89.91
75899;DHT22;64576;50.460;4.866;2022-11-04T09:16:38;10.49;90.44
75899;DHT22;64576;50.460;4.866;2022-11-04T09:19:04;10.49;90.46
75899;DHT22;64576;50.460;4.866;2022-11-04T09:21:30;10.41;91.04
75899;DHT22;64576;50.460;4.866;2022-11-04T09:23:55;10.34;92.36
75899;DHT22;64576;50.460;4.866;2022-11-04T09:26:22;10.37;91.96
75899;DHT22;64576;50.460;4.866;2022-11-04T09:28:52;10.27;91.96
75899;DHT22;64576;50.460;4.866;2022-11-04T09:31:18;10.29;92.36
75899;DHT22;64576;50.460;4.866;2022-11-04T09:33:44;10.33;92.04
75899;DHT22;64576;50.460;4.866;2022-11-04T09:36:10;10.27;92.04
75899;DHT22;64576;50.460;4.866;2022-11-04T09:38:37;10.18;92.71
75899;DHT22;64576;50.460;4.866;2022-11-04T09:44:03;10.03;93.17
75899;DHT22;64576;50.460;4.866;2022-11-04T09:46:30;10.06;93.71
75899;DHT22;64576;50.460;4.866;2022-11-04T09:49:00;10.04;94.04
75899;DHT22;64576;50.460;4.866;2022-11-04T09:51:27;10.09;93.98
75899;DHT22;64576;50.460;4.866;2022-11-04T09:54:19;10.13;94.30
75899;DHT22;64576;50.460;4.866;2022-11-04T09:56:48;10.14;93.76
75899;DHT22;64576;50.460;4.866;2022-11-04T09:59:20;10.13;93.64
75899;DHT22;64576;50.460;4.866;2022-11-04T10:04:50;10.21;94.22
75899;DHT22;64576;50.460;4.866;2022-11-04T10:07:44;10.18;93.55
75899;DHT22;64576;50.460;4.866;2022-11-04T10:13:16;10.29;92.12
75899;DHT22;64576;50.460;4.866;2022-11-04T10:18:16;10.30;93.18
75899;DHT22;64576;50.460;4.866;2022-11-04T10:21:00;10.16;91.05
75899;DHT22;64576;50.460;4.866;2022-11-04T10:26:04;10.16;92.44
75899;DHT22;64576;50.460;4.866;2022-11-04T10:28:38;10.06;92.61
75899;DHT22;64576;50.460;4.866;2022-11-04T10:31:06;10.07;92.70
75899;DHT22;64576;50.460;4.866;2022-11-04T10:33:34;10.03;92.73
75899;DHT22;64576;50.460;4.866;2022-11-04T10:36:05;9.94;93.89
75899;DHT22;64576;50.460;4.866;2022-11-04T10:38:42;10.02;94.66
75899;DHT22;64576;50.460;4.866;2022-11-04T10:41:38;10.00;94.08
75899;DHT22;64576;50.460;4.866;2022-11-04T10:44:09;10.00;95.04
75899;DHT22;64576;50.460;4.866;2022-11-04T10:46:43;10.00;95.00
75899;DHT22;64576;50.460;4.866;2022-11-04T10:51:54;9.92;94.47
75899;DHT22;64576;50.460;4.866;2022-11-04T10:54:21;10.07;95.96
75899;DHT22;64576;50.460;4.866;2022-11-04T10:56:55;9.93;94.06
75899;DHT22;64576;50.460;4.866;2022-11-04T10:59:31;9.99;94.58
75899;DHT22;64576;50.460;4.866;2022-11-04T11:02:02;9.94;95.07
75899;DHT22;64576;50.460;4.866;2022-11-04T11:04:33;10.03;95.16
75899;DHT22;64576;50.460;4.866;2022-11-04T11:07:03;10.03;95.26
75899;DHT22;64576;50.460;4.866;2022-11-04T11:09:32;10.07;95.28
75899;DHT22;64576;50.460;4.866;2022-11-04T11:12:04;10.10;95.63
75899;DHT22;64576;50.460;4.866;2022-11-04T11:14:35;10.24;95.53
75899;DHT22;64576;50.460;4.866;2022-11-04T11:19:59;10.33;94.20
75899;DHT22;64576;50.460;4.866;2022-11-04T11:22:43;10.24;93.53
75899;DHT22;64576;50.460;4.866;2022-11-04T11:25:32;10.34;94.06
75899;DHT22;64576;50.460;4.866;2022-11-04T11:28:04;10.47;93.78
75899;DHT22;64576;50.460;4.866;2022-11-04T11:30:32;10.57;93.04
75899;DHT22;64576;50.460;4.866;2022-11-04T11:33:06;10.71;91.86
75899;DHT22;64576;50.460;4.866;2022-11-04T11:35:41;10.78;91.14
75899;DHT22;64576;50.460;4.866;2022-11-04T11:38:20;11.03;92.16
75899;DHT22;64576;50.460;4.866;2022-11-04T11:40:46;11.31;92.85
75899;DHT22;64576;50.460;4.866;2022-11-04T11:43:24;11.33;89.14
75899;DHT22;64576;50.460;4.866;2022-11-04T11:45:51;11.27;89.86
75899;DHT22;64576;50.460;4.866;2022-11-04T11:51:11;11.45;90.16
75899;DHT22;64576;50.460;4.866;2022-11-04T11:53:38;11.47;88.15
75899;DHT22;64576;50.460;4.866;2022-11-04T11:56:26;11.47;88.77
75899;DHT22;64576;50.460;4.866;2022-11-04T11:59:02;11.50;88.53
75899;DHT22;64576;50.460;4.866;2022-11-04T12:01:38;11.50;88.52
75899;DHT22;64576;50.460;4.866;2022-11-04T12:04:07;11.38;88.61
75899;DHT22;64576;50.460;4.866;2022-11-04T12:42:40;10.21;91.75
75899;DHT22;64576;50.460;4.866;2022-11-04T12:48:11;10.34;92.03
75899;DHT22;64576;50.460;4.866;2022-11-04T12:53:31;10.71;92.08
75899;DHT22;64576;50.460;4.866;2022-11-04T12:56:14;10.73;91.83
75899;DHT22;64576;50.460;4.866;2022-11-04T12:59:05;10.82;91.64
75899;DHT22;64576;50.460;4.866;2022-11-04T13:01:47;10.99;90.18
75899;DHT22;64576;50.460;4.866;2022-11-04T13:04:21;11.07;89.24
75899;DHT22;64576;50.460;4.866;2022-11-04T13:06:48;11.23;89.33
75899;DHT22;64576;50.460;4.866;2022-11-04T13:09:32;11.41;87.18
75899;DHT22;64576;50.460;4.866;2022-11-04T13:12:27;11.62;85.98
75899;DHT22;64576;50.460;4.866;2022-11-04T13:15:02;11.69;86.77
75899;DHT22;64576;50.460;4.866;2022-11-04T13:17:33;11.68;84.74
75899;DHT22;64576;50.460;4.866;2022-11-04T13:20:11;11.60;83.11
75899;DHT22;64576;50.460;4.866;2022-11-04T13:22:39;11.77;85.31
75899;DHT22;64576;50.460;4.866;2022-11-04T13:27:50;11.77;83.85
75899;DHT22;64576;50.460;4.866;2022-11-04T13:36:24;11.65;84.37
75899;DHT22;64576;50.460;4.866;2022-11-04T13:44:25;11.51;88.19
75899;DHT22;64576;50.460;4.866;2022-11-04T13:46:54;11.35;87.22
75899;DHT22;64576;50.460;4.866;2022-11-04T13:49:25;11.04;86.19
75899;DHT22;64576;50.460;4.866;2022-11-04T13:52:12;11.13;86.65
75899;DHT22;64576;50.460;4.866;2022-11-04T13:57:19;11.24;87.11
75899;DHT22;64576;50.460;4.866;2022-11-04T14:02:49;11.23;88.25
75899;DHT22;64576;50.460;4.866;2022-11-04T14:16:00;11.68;83.70
75899;DHT22;64576;50.460;4.866;2022-11-04T14:18:30;11.55;84.86
75899;DHT22;64576;50.460;4.866;2022-11-04T14:23:32;11.42;84.56
75899;DHT22;64576;50.460;4.866;2022-11-04T14:26:04;11.96;82.84
75899;DHT22;64576;50.460;4.866;2022-11-04T14:28:31;11.57;81.34
75899;DHT22;64576;50.460;4.866;2022-11-04T14:31:02;11.45;82.00
75899;DHT22;64576;50.460;4.866;2022-11-04T14:35:55;11.26;83.70
75899;DHT22;64576;50.460;4.866;2022-11-04T14:38:27;11.00;85.38
75899;DHT22;64576;50.460;4.866;2022-11-04T14:41:13;10.78;87.61
75899;DHT22;64576;50.460;4.866;2022-11-04T14:43:41;10.49;88.28
75899;DHT22;64576;50.460;4.866;2022-11-04T14:46:10;10.34;88.70
75899;DHT22;64576;50.460;4.866;2022-11-04T14:48:41;10.23;89.52
75899;DHT22;64576;50.460;4.866;2022-11-04T14:53:49;10.03;89.64
75899;DHT22;64576;50.460;4.866;2022-11-04T14:56:20;10.00;89.77
75899;DHT22;64576;50.460;4.866;2022-11-04T14:58:59;9.92;88.65
75899;DHT22;64576;50.460;4.866;2022-11-04T15:01:27;9.90;89.31
75899;DHT22;64576;50.460;4.866;2022-11-04T15:03:54;9.81;88.74
75899;DHT22;64576;50.460;4.866;2022-11-04T15:06:25;9.69;90.35
75899;DHT22;64576;50.460;4.866;2022-11-04T15:08:51;9.61;90.79
75899;DHT22;64576;50.460;4.866;2022-11-04T15:11:20;9.45;91.65
75899;DHT22;64576;50.460;4.866;2022-11-04T15:14:22;9.44;92.34
75899;DHT22;64576;50.460;4.866;2022-11-04T15:16:53;9.47;92.36
75899;DHT22;64576;50.460;4.866;2022-11-04T15:19:27;9.41;92.57
75899;DHT22;64576;50.460;4.866;2022-11-04T15:21:53;9.45;92.68
75899;DHT22;64576;50.460;4.866;2022-11-04T15:24:19;9.44;92.73
75899;DHT22;64576;50.460;4.866;2022-11-04T15:26:51;9.47;92.69
75899;DHT22;64576;50.460;4.866;2022-11-04T15:29:17;9.54;92.93
75899;DHT22;64576;50.460;4.866;2022-11-04T15:32:16;9.59;92.58
75899;DHT22;64576;50.460;4.866;2022-11-04T15:34:42;9.63;92.34
75899;DHT22;64576;50.460;4.866;2022-11-04T15:37:10;9.63;92.38
75899;DHT22;64576;50.460;4.866;2022-11-04T15:39:40;9.62;92.12
75899;DHT22;64576;50.460;4.866;2022-11-04T15:42:12;9.61;92.14
75899;DHT22;64576;50.460;4.866;2022-11-04T15:44:57;9.54;92.97
75899;DHT22;64576;50.460;4.866;2022-11-04T15:47:25;9.47;93.53
75899;DHT22;64576;50.460;4.866;2022-11-04T15:49:52;9.42;93.34
75899;DHT22;64576;50.460;4.866;2022-11-04T15:52:25;9.39;93.99
75899;DHT22;64576;50.460;4.866;2022-11-04T15:54:53;9.34;94.12
75899;DHT22;64576;50.460;4.866;2022-11-04T15:57:28;9.38;93.34
75899;DHT22;64576;50.460;4.866;2022-11-04T16:00:20;9.42;92.75
75899;DHT22;64576;50.460;4.866;2022-11-04T16:02:59;9.45;93.01
75899;DHT22;64576;50.460;4.866;2022-11-04T16:08:19;9.44;92.76
75899;DHT22;64576;50.460;4.866;2022-11-04T16:10:45;9.39;93.00
75899;DHT22;64576;50.460;4.866;2022-11-04T16:15:45;9.38;93.37
75899;DHT22;64576;50.460;4.866;2022-11-04T16:18:33;9.31;93.78
75899;DHT22;64576;50.460;4.866;2022-11-04T16:21:07;9.26;93.80
75899;DHT22;64576;50.460;4.866;2022-11-04T16:23:43;9.24;94.23
75899;DHT22;64576;50.460;4.866;2022-11-04T16:26:10;9.26;94.14
75899;DHT22;64576;50.460;4.866;2022-11-04T16:28:37;9.17;94.52
75899;DHT22;64576;50.460;4.866;2022-11-04T16:31:22;9.20;94.43
75899;DHT22;64576;50.460;4.866;2022-11-04T16:33:48;9.18;94.71
75899;DHT22;64576;50.460;4.866;2022-11-04T16:36:14;9.21;94.75
75899;DHT22;64576;50.460;4.866;2022-11-04T16:41:41;9.17;95.13
75899;DHT22;64576;50.460;4.866;2022-11-04T16:44:14;9.14;94.70
75899;DHT22;64576;50.460;4.866;2022-11-04T16:46:41;9.01;95.59
75899;DHT22;64576;50.460;4.866;2022-11-04T16:49:08;8.94;94.81
75899;DHT22;64576;50.460;4.866;2022-11-04T16:51:34;8.89;95.24
75899;DHT22;64576;50.460;4.866;2022-11-04T16:53:59;8.82;94.65
75899;DHT22;64576;50.460;4.866;2022-11-04T16:56:25;8.75;94.89
75899;DHT22;64576;50.460;4.866;2022-11-04T16:58:51;8.65;94.21
75899;DHT22;64576;50.460;4.866;2022-11-04T17:01:17;8.58;93.41
75899;DHT22;64576;50.460;4.866;2022-11-04T17:03:43;8.45;93.61
75899;DHT22;64576;50.460;4.866;2022-11-04T17:06:11;8.44;92.55
75899;DHT22;64576;50.460;4.866;2022-11-04T17:08:36;8.35;92.86
75899;DHT22;64576;50.460;4.866;2022-11-04T17:11:02;8.28;92.97
75899;DHT22;64576;50.460;4.866;2022-11-04T17:13:30;8.27;92.14
75899;DHT22;64576;50.460;4.866;2022-11-04T17:15:56;8.21;92.49
75899;DHT22;64576;50.460;4.866;2022-11-04T17:18:21;8.08;92.63
75899;DHT22;64576;50.460;4.866;2022-11-04T17:20:52;8.10;92.83
75899;DHT22;64576;50.460;4.866;2022-11-04T17:23:19;8.00;92.75
75899;DHT22;64576;50.460;4.866;2022-11-04T17:25:50;7.91;93.18
75899;DHT22;64576;50.460;4.866;2022-11-04T17:28:16;7.91;93.09
75899;DHT22;64576;50.460;4.866;2022-11-04T17:30:42;7.93;93.07
75899;DHT22;64576;50.460;4.866;2022-11-04T17:33:12;7.90;92.88
75899;DHT22;64576;50.460;4.866;2022-11-04T17:35:39;7.87;92.81
75899;DHT22;64576;50.460;4.866;2022-11-04T17:38:05;7.80;93.35
75899;DHT22;64576;50.460;4.866;2022-11-04T17:40:30;7.78;93.35
75899;DHT22;64576;50.460;4.866;2022-11-04T17:42:56;7.73;93.56
75899;DHT22;64576;50.460;4.866;2022-11-04T17:45:41;7.62;94.20
75899;DHT22;64576;50.460;4.866;2022-11-04T17:48:07;7.69;94.54
75899;DHT22;64576;50.460;4.866;2022-11-04T17:50:33;7.70;94.61
75899;DHT22;64576;50.460;4.866;2022-11-04T17:52:59;7.70;95.04
75899;DHT22;64576;50.460;4.866;2022-11-04T17:55:24;7.86;93.98
75899;DHT22;64576;50.460;4.866;2022-11-04T17:57:49;7.87;94.21
75899;DHT22;64576;50.460;4.866;2022-11-04T18:00:15;8.03;93.46
75899;DHT22;64576;50.460;4.866;2022-11-04T18:02:41;8.06;93.28
75899;DHT22;64576;50.460;4.866;2022-11-04T18:05:07;8.11;92.96
75899;DHT22;64576;50.460;4.866;2022-11-04T18:07:32;8.10;93.19
75899;DHT22;64576;50.460;4.866;2022-11-04T18:09:58;8.07;93.33
75899;DHT22;64576;50.460;4.866;2022-11-04T18:12:23;7.97;93.82